Time;durP1;ratioP1;P1;durP2;ratioP2;P2;SDS_P1;SDS_P2;PMS_P1;PMS_P2;Temp;Humidity;BMP_temperature;BMP_pressure;BME280_temperature;BME280_humidity;BME280_pressure;Samples;Min_cycle;Max_cycle;Signal;HPM_P1;HPM_P2
2022/05/17 00:02:03;;;;;;;;;4.50;4.50;;;;;;;;5038226;28;8846;-77
2022/05/17 00:04:31;;;;;;;;;4.50;4.00;;;;;;;;5038459;28;9621;-78
2022/05/17 00:07:00;;;;;;;;;7.00;7.00;;;;;;;;5037927;28;8869;-78
2022/05/17 00:09:28;;;;;;;;;5.25;5.25;;;;;;;;5037177;28;8907;-78
2022/05/17 00:11:56;;;;;;;;;8.25;6.75;;;;;;;;5040699;28;9697;-78
2022/05/17 00:14:23;;;;;;;;;9.50;5.50;;;;;;;;5034670;28;8859;-78
2022/05/17 00:16:50;;;;;;;;;4.50;4.50;;;;;;;;5040398;28;8897;-78
2022/05/17 00:19:19;;;;;;;;;7.00;5.00;;;;;;;;5038098;28;8851;-78
2022/05/17 00:21:47;;;;;;;;;6.00;6.00;;;;;;;;5040621;28;8883;-78
2022/05/17 00:24:17;;;;;;;;;4.75;4.75;;;;;;;;5038491;28;8901;-78
2022/05/17 00:26:44;;;;;;;;;6.25;4.25;;;;;;;;5043569;28;9689;-78
2022/05/17 00:29:12;;;;;;;;;7.00;5.25;;;;;;;;5041348;28;8886;-78
2022/05/17 00:31:40;;;;;;;;;5.00;5.00;;;;;;;;5042503;28;8839;-78
2022/05/17 00:34:07;;;;;;;;;5.00;5.00;;;;;;;;5038963;28;8902;-78
2022/05/17 00:36:35;;;;;;;;;4.50;4.50;;;;;;;;5044000;28;8863;-78
2022/05/17 00:39:03;;;;;;;;;6.50;6.50;;;;;;;;5042974;28;8863;-78
2022/05/17 00:41:32;;;;;;;;;6.00;6.00;;;;;;;;5043886;28;8887;-78
2022/05/17 00:46:48;;;;;;;;;6.00;6.00;;;;;;;;5041886;28;8847;-78
2022/05/17 00:49:18;;;;;;;;;7.25;6.00;;;;;;;;5042332;28;8944;-78
2022/05/17 00:51:45;;;;;;;;;3.00;2.50;;;;;;;;5042762;28;9663;-78
2022/05/17 00:54:16;;;;;;;;;4.75;4.75;;;;;;;;5042920;28;8854;-78
2022/05/17 00:56:49;;;;;;;;;6.00;6.00;;;;;;;;5041533;28;8887;-78
2022/05/17 00:59:17;;;;;;;;;6.50;6.50;;;;;;;;5041391;28;8901;-78
2022/05/17 01:01:45;;;;;;;;;7.25;6.50;;;;;;;;5041370;28;8946;-77
2022/05/17 01:04:15;;;;;;;;;7.50;7.50;;;;;;;;5041274;28;8878;-77
2022/05/17 01:06:45;;;;;;;;;7.75;7.75;;;;;;;;5042435;28;8973;-77
2022/05/17 01:09:12;;;;;;;;;9.25;7.00;;;;;;;;5047415;28;8881;-78
2022/05/17 01:11:40;;;;;;;;;6.00;6.00;;;;;;;;5043996;28;8854;-78
2022/05/17 01:16:54;;;;;;;;;6.25;6.25;;;;;;;;5036896;28;8851;-78
2022/05/17 01:19:21;;;;;;;;;3.75;3.75;;;;;;;;5037579;28;8883;-79
2022/05/17 01:21:50;;;;;;;;;6.75;6.75;;;;;;;;5040472;28;8887;-78
2022/05/17 01:24:17;;;;;;;;;7.00;7.00;;;;;;;;5039243;28;8881;-78
2022/05/17 01:26:46;;;;;;;;;5.25;5.25;;;;;;;;5038297;28;8879;-77
2022/05/17 01:29:14;;;;;;;;;6.00;6.00;;;;;;;;5043375;28;8867;-77
2022/05/17 01:31:42;;;;;;;;;6.00;6.00;;;;;;;;5038471;28;8928;-77
2022/05/17 01:34:10;;;;;;;;;4.25;4.25;;;;;;;;5039188;28;8867;-78
2022/05/17 01:36:38;;;;;;;;;6.75;6.75;;;;;;;;5063069;28;9659;-77
2022/05/17 01:39:08;;;;;;;;;6.00;6.00;;;;;;;;5037280;28;8894;-77
2022/05/17 01:41:35;;;;;;;;;7.50;7.50;;;;;;;;5040876;28;8889;-77
2022/05/17 01:44:03;;;;;;;;;7.25;6.50;;;;;;;;5000664;28;8914;-77
2022/05/17 01:46:31;;;;;;;;;10.50;8.25;;;;;;;;4998155;28;8844;-77
2022/05/17 01:48:58;;;;;;;;;5.50;5.50;;;;;;;;4996002;28;8876;-77
2022/05/17 01:51:25;;;;;;;;;6.50;6.50;;;;;;;;5003398;28;8876;-77
2022/05/17 01:53:52;;;;;;;;;5.25;5.25;;;;;;;;5001517;28;8864;-77
2022/05/17 01:56:21;;;;;;;;;7.00;7.00;;;;;;;;5007113;28;8926;-77
2022/05/17 01:58:48;;;;;;;;;10.00;7.75;;;;;;;;5002163;28;8894;-77
2022/05/17 02:01:16;;;;;;;;;7.75;7.75;;;;;;;;4999279;28;8943;-77
2022/05/17 02:03:43;;;;;;;;;10.50;10.50;;;;;;;;5000152;28;8856;-77
2022/05/17 02:06:10;;;;;;;;;10.50;10.25;;;;;;;;5001984;28;8900;-77
2022/05/17 02:08:37;;;;;;;;;12.75;12.75;;;;;;;;4999213;28;8868;-78
2022/05/17 02:11:05;;;;;;;;;11.25;11.25;;;;;;;;5001962;28;8922;-78
2022/05/17 02:13:34;;;;;;;;;11.25;10.00;;;;;;;;5001196;28;8860;-78
2022/05/17 02:16:03;;;;;;;;;11.00;10.25;;;;;;;;5002741;28;8879;-77
2022/05/17 02:18:30;;;;;;;;;12.00;12.00;;;;;;;;5000798;28;8882;-78
2022/05/17 02:20:57;;;;;;;;;10.75;10.75;;;;;;;;5000828;28;8898;-78
2022/05/17 02:23:25;;;;;;;;;12.50;11.75;;;;;;;;4999334;28;8899;-77
2022/05/17 02:25:52;;;;;;;;;9.50;9.50;;;;;;;;5001582;28;8975;-77
2022/05/17 02:28:20;;;;;;;;;10.25;10.25;;;;;;;;5000586;28;8922;-77
2022/05/17 02:30:49;;;;;;;;;8.75;8.75;;;;;;;;5000402;28;8837;-77
2022/05/17 02:33:17;;;;;;;;;9.25;9.00;;;;;;;;5000815;28;8872;-78
2022/05/17 02:35:45;;;;;;;;;7.00;7.00;;;;;;;;5000884;28;8880;-78
2022/05/17 02:38:12;;;;;;;;;10.75;10.75;;;;;;;;5000983;28;8876;-77
2022/05/17 02:40:40;;;;;;;;;11.75;10.75;;;;;;;;5000588;28;8902;-78
2022/05/17 02:43:07;;;;;;;;;9.25;9.00;;;;;;;;5015054;28;8939;-77
2022/05/17 02:45:35;;;;;;;;;8.25;8.25;;;;;;;;5019042;28;8869;-77
2022/05/17 02:48:03;;;;;;;;;9.75;9.75;;;;;;;;5019842;28;8889;-78
2022/05/17 02:50:32;;;;;;;;;9.75;9.75;;;;;;;;5020867;28;8861;-77
2022/05/17 02:52:59;;;;;;;;;10.25;8.25;;;;;;;;5021611;28;8893;-77
2022/05/17 02:55:27;;;;;;;;;8.75;8.75;;;;;;;;5022313;28;8869;-78
2022/05/17 02:57:54;;;;;;;;;9.50;9.50;;;;;;;;5019392;28;9251;-77
2022/05/17 03:00:21;;;;;;;;;11.75;9.75;;;;;;;;5029416;28;8870;-77
2022/05/17 03:02:49;;;;;;;;;10.00;10.00;;;;;;;;5038999;28;8871;-76
2022/05/17 03:05:17;;;;;;;;;9.00;9.00;;;;;;;;5041721;28;8881;-77
2022/05/17 03:07:45;;;;;;;;;8.75;8.75;;;;;;;;5036525;28;8899;-77
2022/05/17 03:10:13;;;;;;;;;8.00;8.00;;;;;;;;5041477;28;8879;-77
2022/05/17 03:12:41;;;;;;;;;8.75;8.50;;;;;;;;5040033;28;8872;-77
2022/05/17 03:15:09;;;;;;;;;7.75;7.50;;;;;;;;5033224;28;8899;-77
2022/05/17 03:17:36;;;;;;;;;10.50;9.00;;;;;;;;5036329;28;8861;-77
2022/05/17 03:20:04;;;;;;;;;8.25;8.00;;;;;;;;5040232;28;9406;-78
2022/05/17 03:22:33;;;;;;;;;11.25;10.00;;;;;;;;5038396;28;8897;-77
2022/05/17 03:25:00;;;;;;;;;8.50;8.50;;;;;;;;5040784;28;8870;-78
2022/05/17 03:27:28;;;;;;;;;10.75;9.00;;;;;;;;5041062;28;8893;-78
2022/05/17 03:29:55;;;;;;;;;7.00;7.00;;;;;;;;5039659;28;8843;-78
2022/05/17 03:32:22;;;;;;;;;7.50;7.50;;;;;;;;5040235;28;8843;-78
2022/05/17 03:34:49;;;;;;;;;8.00;8.00;;;;;;;;5040099;28;8876;-78
2022/05/17 03:37:17;;;;;;;;;7.25;7.25;;;;;;;;5038638;28;8863;-77
2022/05/17 03:39:45;;;;;;;;;9.75;8.00;;;;;;;;5040020;28;8886;-77
2022/05/17 03:42:13;;;;;;;;;8.50;7.25;;;;;;;;5039704;28;8863;-78
2022/05/17 03:44:40;;;;;;;;;7.25;6.50;;;;;;;;5041415;28;8993;-77
2022/05/17 03:47:09;;;;;;;;;6.00;6.00;;;;;;;;5039871;28;8901;-77
2022/05/17 03:49:37;;;;;;;;;6.25;6.25;;;;;;;;5038245;28;8883;-79
2022/05/17 03:52:05;;;;;;;;;5.75;5.25;;;;;;;;5040870;28;8997;-79
2022/05/17 03:54:32;;;;;;;;;11.25;8.50;;;;;;;;5039910;28;8905;-79
2022/05/17 03:57:01;;;;;;;;;7.00;7.00;;;;;;;;5038773;28;8870;-78
2022/05/17 03:59:28;;;;;;;;;10.00;8.00;;;;;;;;5038172;28;8908;-78
2022/05/17 04:01:55;;;;;;;;;5.75;5.75;;;;;;;;5039077;28;8837;-78
2022/05/17 04:04:22;;;;;;;;;6.25;6.25;;;;;;;;5038835;28;8887;-77
2022/05/17 04:06:49;;;;;;;;;12.25;9.75;;;;;;;;5045093;28;8867;-77
2022/05/17 04:09:17;;;;;;;;;6.00;5.75;;;;;;;;5043381;28;8997;-76
2022/05/17 04:11:44;;;;;;;;;7.75;7.75;;;;;;;;5040218;28;8977;-79
2022/05/17 04:14:13;;;;;;;;;6.25;6.25;;;;;;;;5042132;28;9010;-78
2022/05/17 04:16:40;;;;;;;;;6.00;6.00;;;;;;;;5042293;28;8908;-78
2022/05/17 04:19:09;;;;;;;;;6.00;6.00;;;;;;;;5044656;28;9065;-78
2022/05/17 04:21:36;;;;;;;;;5.25;5.25;;;;;;;;5040992;28;8901;-77
2022/05/17 04:24:04;;;;;;;;;6.25;6.25;;;;;;;;5045320;28;8891;-78
2022/05/17 04:26:32;;;;;;;;;5.75;5.50;;;;;;;;5042119;28;9636;-77
2022/05/17 04:28:59;;;;;;;;;9.50;6.00;;;;;;;;5040958;28;8901;-78
2022/05/17 04:31:28;;;;;;;;;6.00;6.00;;;;;;;;5041526;28;8808;-77
2022/05/17 04:33:55;;;;;;;;;5.75;5.75;;;;;;;;5043392;28;8955;-80
2022/05/17 04:36:23;;;;;;;;;6.75;6.75;;;;;;;;5041072;28;8882;-77
2022/05/17 04:38:50;;;;;;;;;6.00;5.00;;;;;;;;5040840;28;8879;-77
2022/05/17 04:41:17;;;;;;;;;5.75;5.75;;;;;;;;5042336;28;8986;-77
2022/05/17 04:43:46;;;;;;;;;4.75;4.75;;;;;;;;5042200;28;8870;-77
2022/05/17 04:46:13;;;;;;;;;6.00;6.00;;;;;;;;5040492;28;9630;-76
2022/05/17 04:48:42;;;;;;;;;5.25;4.75;;;;;;;;5040370;28;8851;-81
2022/05/17 04:51:10;;;;;;;;;5.25;5.25;;;;;;;;5049353;28;8886;-77
2022/05/17 04:53:38;;;;;;;;;11.00;6.00;;;;;;;;5043013;28;9596;-82
2022/05/17 04:56:06;;;;;;;;;5.25;5.00;;;;;;;;5043425;28;8883;-76
2022/05/17 04:58:33;;;;;;;;;5.50;5.50;;;;;;;;5044603;28;8883;-79
2022/05/17 05:01:01;;;;;;;;;4.00;4.00;;;;;;;;5043877;28;8827;-79
2022/05/17 05:03:29;;;;;;;;;4.25;4.25;;;;;;;;5044555;28;8906;-79
2022/05/17 05:05:58;;;;;;;;;4.00;4.00;;;;;;;;5044887;28;8899;-78
2022/05/17 05:08:26;;;;;;;;;6.00;6.00;;;;;;;;5043879;28;8890;-80
2022/05/17 05:10:53;;;;;;;;;5.75;5.75;;;;;;;;5044797;28;8994;-85
2022/05/17 05:13:21;;;;;;;;;5.75;5.75;;;;;;;;5043901;28;8986;-78
2022/05/17 05:15:49;;;;;;;;;5.25;5.25;;;;;;;;5043624;28;8894;-80
2022/05/17 05:18:17;;;;;;;;;9.25;5.25;;;;;;;;5042101;28;8886;-80
2022/05/17 05:20:44;;;;;;;;;6.25;6.25;;;;;;;;5045179;28;8870;-81
2022/05/17 05:23:13;;;;;;;;;5.75;5.00;;;;;;;;5042109;28;8874;-76
2022/05/17 05:25:41;;;;;;;;;8.25;6.75;;;;;;;;5041721;28;8871;-76
2022/05/17 05:28:08;;;;;;;;;8.00;6.00;;;;;;;;5036082;28;8855;-75
2022/05/17 05:30:37;;;;;;;;;12.00;8.50;;;;;;;;5037829;28;8800;-76
2022/05/17 05:33:04;;;;;;;;;10.00;6.50;;;;;;;;5035220;28;8854;-77
2022/05/17 05:35:33;;;;;;;;;6.50;6.50;;;;;;;;5035933;28;8880;-83
2022/05/17 05:38:00;;;;;;;;;7.75;6.00;;;;;;;;5040118;28;8893;-84
2022/05/17 05:40:29;;;;;;;;;7.75;7.25;;;;;;;;5035224;28;8871;-85
2022/05/17 05:42:57;;;;;;;;;6.25;6.25;;;;;;;;5038569;28;8916;-77
2022/05/17 05:45:24;;;;;;;;;7.25;7.25;;;;;;;;5038111;28;8870;-76
2022/05/17 05:47:52;;;;;;;;;9.25;7.50;;;;;;;;5035674;28;8914;-77
2022/05/17 05:50:19;;;;;;;;;9.00;7.25;;;;;;;;5040001;28;8888;-77
2022/05/17 05:52:48;;;;;;;;;9.25;8.25;;;;;;;;5036047;28;8855;-74
2022/05/17 05:55:19;;;;;;;;;6.25;6.25;;;;;;;;5032660;28;8897;-75
2022/05/17 05:57:49;;;;;;;;;8.25;6.50;;;;;;;;5034844;28;8881;-80
2022/05/17 06:00:18;;;;;;;;;10.00;5.75;;;;;;;;5033257;28;9009;-81
2022/05/17 06:02:46;;;;;;;;;6.00;6.00;;;;;;;;5034545;28;8901;-74
2022/05/17 06:05:13;;;;;;;;;6.00;6.00;;;;;;;;5029954;28;8859;-76
2022/05/17 06:07:40;;;;;;;;;5.00;5.00;;;;;;;;5031376;28;8867;-78
2022/05/17 06:10:08;;;;;;;;;7.75;7.00;;;;;;;;5031358;28;8899;-82
2022/05/17 06:12:36;;;;;;;;;7.50;7.50;;;;;;;;5029405;28;8873;-78
2022/05/17 06:15:06;;;;;;;;;5.25;5.25;;;;;;;;5038009;28;8868;-78
2022/05/17 06:17:33;;;;;;;;;6.75;6.75;;;;;;;;5028693;28;8878;-73
2022/05/17 06:20:01;;;;;;;;;8.75;8.75;;;;;;;;5035217;28;8875;-81
2022/05/17 06:22:29;;;;;;;;;8.75;7.00;;;;;;;;5031044;28;8984;-77
2022/05/17 06:24:56;;;;;;;;;6.75;6.00;;;;;;;;5032841;28;8869;-76
2022/05/17 06:27:23;;;;;;;;;5.25;5.25;;;;;;;;5031562;28;8862;-76
2022/05/17 06:29:50;;;;;;;;;6.25;6.00;;;;;;;;5034315;28;8968;-79
2022/05/17 06:32:19;;;;;;;;;7.50;7.50;;;;;;;;5033220;28;8839;-83
2022/05/17 06:34:47;;;;;;;;;7.75;7.75;;;;;;;;5041847;28;8858;-79
2022/05/17 06:37:15;;;;;;;;;7.00;6.75;;;;;;;;5035450;28;8869;-80
2022/05/17 06:39:43;;;;;;;;;7.25;7.25;;;;;;;;5033228;28;8885;-77
2022/05/17 06:42:11;;;;;;;;;9.00;9.00;;;;;;;;5041456;28;8874;-81
2022/05/17 06:44:39;;;;;;;;;9.25;9.25;;;;;;;;5038430;28;8871;-83
2022/05/17 06:47:07;;;;;;;;;7.00;7.00;;;;;;;;5039212;28;8881;-83
2022/05/17 06:49:37;;;;;;;;;8.50;8.50;;;;;;;;5032506;28;9036;-78
2022/05/17 06:52:06;;;;;;;;;7.75;7.75;;;;;;;;5039210;28;9010;-79
2022/05/17 06:54:34;;;;;;;;;8.50;6.50;;;;;;;;5038360;28;8870;-79
2022/05/17 06:57:04;;;;;;;;;7.00;7.00;;;;;;;;5037033;28;8855;-79
2022/05/17 06:59:31;;;;;;;;;6.50;6.50;;;;;;;;5042268;28;8874;-77
2022/05/17 07:01:59;;;;;;;;;8.75;6.75;;;;;;;;5038886;28;8815;-76
2022/05/17 07:04:27;;;;;;;;;7.00;7.00;;;;;;;;5040244;28;8866;-77
2022/05/17 07:06:58;;;;;;;;;6.25;6.25;;;;;;;;5040910;28;8863;-77
2022/05/17 07:09:26;;;;;;;;;6.00;4.80;;;;;;;;5037701;28;8867;-78
2022/05/17 07:14:39;;;;;;;;;6.60;6.60;;;;;;;;5042528;28;8851;-77
2022/05/17 07:17:06;;;;;;;;;5.20;5.20;;;;;;;;5040206;28;8859;-79
2022/05/17 07:19:34;;;;;;;;;8.60;7.00;;;;;;;;5038840;28;8894;-77
2022/05/17 07:22:05;;;;;;;;;5.80;5.80;;;;;;;;5041203;28;9535;-77
2022/05/17 07:24:32;;;;;;;;;5.00;5.00;;;;;;;;5037056;28;8910;-78
2022/05/17 07:27:01;;;;;;;;;11.20;6.20;;;;;;;;5035284;28;8871;-78
2022/05/17 07:29:28;;;;;;;;;5.40;5.40;;;;;;;;5037261;28;8849;-77
2022/05/17 07:31:56;;;;;;;;;6.60;6.60;;;;;;;;5045402;28;8831;-76
2022/05/17 07:34:23;;;;;;;;;6.20;6.20;;;;;;;;5037198;28;8859;-78
2022/05/17 07:36:50;;;;;;;;;5.60;5.60;;;;;;;;5036440;28;8862;-78
2022/05/17 07:39:19;;;;;;;;;6.00;4.80;;;;;;;;5038989;28;8874;-77
2022/05/17 07:41:47;;;;;;;;;3.20;3.20;;;;;;;;5033022;28;8902;-77
2022/05/17 07:44:15;;;;;;;;;0.60;0.60;;;;;;;;5041852;28;9695;-76
2022/05/17 07:46:42;;;;;;;;;6.60;5.00;;;;;;;;5063654;28;8884;-78
2022/05/17 07:49:10;;;;;;;;;5.00;5.00;;;;;;;;5034859;28;9648;-78
2022/05/17 07:51:37;;;;;;;;;5.00;5.00;;;;;;;;5039323;28;8885;-77
2022/05/17 07:54:06;;;;;;;;;3.80;3.80;;;;;;;;5035865;28;8889;-78
2022/05/17 07:56:35;;;;;;;;;5.00;5.00;;;;;;;;5036462;28;8851;-80
2022/05/17 07:59:03;;;;;;;;;4.20;4.20;;;;;;;;5035332;28;8869;-78
2022/05/17 08:01:30;;;;;;;;;3.80;3.80;;;;;;;;5038082;28;8823;-80
2022/05/17 08:03:58;;;;;;;;;5.20;5.20;;;;;;;;5039731;28;8966;-78
2022/05/17 08:06:26;;;;;;;;;4.20;2.80;;;;;;;;5037130;28;8867;-82
2022/05/17 08:08:53;;;;;;;;;3.80;3.40;;;;;;;;5037817;28;8867;-77
2022/05/17 08:11:24;;;;;;;;;1.40;1.40;;;;;;;;5035484;28;8990;-78
2022/05/17 08:13:53;;;;;;;;;3.60;3.60;;;;;;;;5036948;28;8873;-76
2022/05/17 08:16:20;;;;;;;;;3.00;3.00;;;;;;;;5039840;28;8862;-76
2022/05/17 08:18:47;;;;;;;;;3.20;3.20;;;;;;;;5037684;28;8851;-77
2022/05/17 08:21:14;;;;;;;;;3.60;3.00;;;;;;;;5040030;28;8926;-76
2022/05/17 08:23:43;;;;;;;;;1.00;1.00;;;;;;;;5038242;28;8875;-76
2022/05/17 08:28:57;;;;;;;;;2.00;2.00;;;;;;;;5019738;28;10071;-75
2022/05/17 08:31:24;;;;;;;;;1.80;1.80;;;;;;;;5040025;28;8845;-76
2022/05/17 08:33:50;;;;;;;;;1.00;1.00;;;;;;;;5035408;28;8901;-77
2022/05/17 08:36:19;;;;;;;;;0.80;0.80;;;;;;;;5039248;28;8994;-77
2022/05/17 08:38:51;;;;;;;;;0.60;0.60;;;;;;;;5040300;28;8881;-76
2022/05/17 08:41:23;;;;;;;;;1.00;1.00;;;;;;;;5037365;28;8882;-75
2022/05/17 08:43:54;;;;;;;;;1.20;0.60;;;;;;;;5038316;28;8861;-76
2022/05/17 08:46:33;;;;;;;;;2.00;2.00;;;;;;;;5041375;28;8867;-77
2022/05/17 08:49:06;;;;;;;;;0.80;0.80;;;;;;;;5043349;28;8866;-78
2022/05/17 08:51:38;;;;;;;;;2.40;2.40;;;;;;;;5040395;28;9114;-80
2022/05/17 08:54:07;;;;;;;;;3.80;2.40;;;;;;;;5043305;28;8990;-80
2022/05/17 08:56:39;;;;;;;;;1.00;1.00;;;;;;;;5041204;28;8886;-78
2022/05/17 08:59:06;;;;;;;;;0.80;0.80;;;;;;;;5038336;28;8886;-80
2022/05/17 09:01:45;;;;;;;;;1.80;1.80;;;;;;;;5041132;28;8823;-77
2022/05/17 09:04:33;;;;;;;;;1.00;1.00;;;;;;;;5037505;28;8858;-81
2022/05/17 09:07:11;;;;;;;;;4.80;4.80;;;;;;;;5041592;28;8870;-78
2022/05/17 09:09:47;;;;;;;;;0.80;0.80;;;;;;;;5044162;28;8981;-78
2022/05/17 09:12:27;;;;;;;;;1.20;1.20;;;;;;;;5039658;28;8963;-86
2022/05/17 09:14:57;;;;;;;;;0.00;0.00;;;;;;;;5042260;28;9711;-76
2022/05/17 09:17:28;;;;;;;;;0.20;0.20;;;;;;;;5040720;28;8897;-77
2022/05/17 09:19:56;;;;;;;;;1.00;1.00;;;;;;;;5044919;28;8879;-77
2022/05/17 09:22:24;;;;;;;;;0.60;0.40;;;;;;;;5040652;28;8855;-75
2022/05/17 09:24:58;;;;;;;;;0.80;0.80;;;;;;;;5039308;28;8901;-77
2022/05/17 09:27:29;;;;;;;;;3.40;3.40;;;;;;;;5032189;28;8878;-76
2022/05/17 09:30:04;;;;;;;;;1.00;1.00;;;;;;;;5044215;28;8976;-77
2022/05/17 09:32:35;;;;;;;;;2.20;2.20;;;;;;;;5042933;28;9459;-79
2022/05/17 09:35:06;;;;;;;;;2.00;2.00;;;;;;;;5034982;28;9693;-77
2022/05/17 09:37:36;;;;;;;;;3.00;1.00;;;;;;;;5043998;28;8876;-76
2022/05/17 09:40:06;;;;;;;;;1.40;1.40;;;;;;;;5044718;28;9644;-76
2022/05/17 09:42:36;;;;;;;;;0.60;0.60;;;;;;;;5041727;28;8876;-75
2022/05/17 09:45:07;;;;;;;;;2.20;1.20;;;;;;;;5042262;28;8870;-76
2022/05/17 09:47:43;;;;;;;;;0.00;0.00;;;;;;;;5033265;28;8857;-76
2022/05/17 09:53:03;;;;;;;;;1.00;1.00;;;;;;;;5050331;28;8874;-79
2022/05/17 09:55:33;;;;;;;;;2.00;2.00;;;;;;;;5034246;28;8871;-75
2022/05/17 09:58:03;;;;;;;;;0.00;0.00;;;;;;;;5033295;28;8896;-76
2022/05/17 10:00:39;;;;;;;;;0.40;0.40;;;;;;;;5034975;28;8829;-78
2022/05/17 10:03:29;;;;;;;;;0.00;0.00;;;;;;;;5037802;28;8967;-76
2022/05/17 10:06:00;;;;;;;;;0.00;0.00;;;;;;;;5039416;28;8866;-78
2022/05/17 10:08:33;;;;;;;;;1.80;0.40;;;;;;;;5037184;28;9652;-73
2022/05/17 10:11:07;;;;;;;;;0.00;0.00;;;;;;;;5045252;28;9343;-76
2022/05/17 10:13:37;;;;;;;;;0.00;0.00;;;;;;;;5043018;28;8871;-78
2022/05/17 10:16:08;;;;;;;;;0.00;0.00;;;;;;;;5046059;28;8863;-77
2022/05/17 10:18:41;;;;;;;;;0.00;0.00;;;;;;;;5043260;28;8957;-78
2022/05/17 10:21:14;;;;;;;;;1.00;1.00;;;;;;;;5043166;28;9672;-77
2022/05/17 10:23:46;;;;;;;;;0.40;0.40;;;;;;;;5042238;28;8855;-77
2022/05/17 10:26:17;;;;;;;;;1.20;1.20;;;;;;;;5042464;28;8850;-76
2022/05/17 10:28:49;;;;;;;;;0.00;0.00;;;;;;;;5037208;28;8883;-77
2022/05/17 10:31:22;;;;;;;;;0.40;0.40;;;;;;;;5040573;28;8815;-76
2022/05/17 10:34:08;;;;;;;;;0.00;0.00;;;;;;;;5042301;28;8971;-80
2022/05/17 10:36:40;;;;;;;;;0.00;0.00;;;;;;;;5039540;28;8835;-76
2022/05/17 10:39:16;;;;;;;;;0.00;0.00;;;;;;;;5044675;28;8885;-76
2022/05/17 10:41:43;;;;;;;;;0.40;0.40;;;;;;;;5044273;28;8863;-74
2022/05/17 10:44:13;;;;;;;;;0.00;0.00;;;;;;;;5038900;28;8875;-77
2022/05/17 10:46:47;;;;;;;;;0.00;0.00;;;;;;;;5040753;28;8991;-80
2022/05/17 10:49:21;;;;;;;;;0.00;0.00;;;;;;;;5041268;28;8964;-80
2022/05/17 10:51:56;;;;;;;;;0.00;0.00;;;;;;;;5041662;28;8891;-76
2022/05/17 10:54:34;;;;;;;;;0.00;0.00;;;;;;;;5034104;28;8920;-75
2022/05/17 10:57:10;;;;;;;;;0.00;0.00;;;;;;;;5037938;28;8897;-80
2022/05/17 10:59:41;;;;;;;;;0.00;0.00;;;;;;;;5035904;28;8862;-78
2022/05/17 11:02:18;;;;;;;;;0.60;0.00;;;;;;;;5040140;28;8799;-78
2022/05/17 11:05:12;;;;;;;;;0.00;0.00;;;;;;;;5037716;28;8909;-78
2022/05/17 11:07:52;;;;;;;;;0.00;0.00;;;;;;;;5035378;28;9629;-78
2022/05/17 11:10:28;;;;;;;;;0.00;0.00;;;;;;;;5031336;28;8920;-78
2022/05/17 11:13:00;;;;;;;;;0.00;0.00;;;;;;;;5041902;28;8886;-78
2022/05/17 11:15:33;;;;;;;;;0.00;0.00;;;;;;;;5039923;28;8847;-77
2022/05/17 11:18:04;;;;;;;;;0.60;0.60;;;;;;;;5037219;28;8866;-79
2022/05/17 11:20:37;;;;;;;;;0.00;0.00;;;;;;;;5043071;28;8876;-79
2022/05/17 11:23:28;;;;;;;;;0.00;0.00;;;;;;;;5040142;28;8898;-78
2022/05/17 11:26:28;;;;;;;;;0.60;0.00;;;;;;;;5037037;28;8918;-78
2022/05/17 11:29:07;;;;;;;;;0.00;0.00;;;;;;;;5039186;28;8858;-79
2022/05/17 11:31:47;;;;;;;;;0.00;0.00;;;;;;;;5036543;28;8937;-77
2022/05/17 11:34:27;;;;;;;;;0.00;0.00;;;;;;;;5035869;28;8870;-81
2022/05/17 11:36:57;;;;;;;;;0.00;0.00;;;;;;;;5033690;28;8901;-80
2022/05/17 11:39:47;;;;;;;;;0.00;0.00;;;;;;;;5040224;28;8887;-83
2022/05/17 11:42:30;;;;;;;;;0.00;0.00;;;;;;;;5041405;28;8878;-83
2022/05/17 11:45:19;;;;;;;;;0.00;0.00;;;;;;;;5037672;28;8899;-77
2022/05/17 11:47:56;;;;;;;;;0.00;0.00;;;;;;;;5039780;28;8882;-81
2022/05/17 11:50:44;;;;;;;;;0.00;0.00;;;;;;;;5036203;28;9639;-81
2022/05/17 11:53:48;;;;;;;;;0.00;0.00;;;;;;;;5040905;28;8883;-79
2022/05/17 11:56:20;;;;;;;;;0.00;0.00;;;;;;;;5041146;28;9602;-80
2022/05/17 11:58:50;;;;;;;;;0.00;0.00;;;;;;;;5037276;28;8879;-80
2022/05/17 12:01:44;;;;;;;;;0.00;0.00;;;;;;;;5039977;28;8808;-79
2022/05/17 12:04:39;;;;;;;;;0.00;0.00;;;;;;;;5036755;28;8888;-80
2022/05/17 12:07:27;;;;;;;;;0.00;0.00;;;;;;;;5035837;28;8862;-77
2022/05/17 12:09:56;;;;;;;;;0.00;0.00;;;;;;;;5039049;28;8881;-83
2022/05/17 12:12:54;;;;;;;;;0.00;0.00;;;;;;;;5034513;28;8980;-81
2022/05/17 12:15:50;;;;;;;;;0.00;0.00;;;;;;;;5038849;28;8867;-81
2022/05/17 12:18:37;;;;;;;;;0.00;0.00;;;;;;;;5009259;28;8840;-82
2022/05/17 12:21:26;;;;;;;;;1.20;0.00;;;;;;;;5043034;28;8851;-81
2022/05/17 12:23:58;;;;;;;;;0.00;0.00;;;;;;;;5041293;28;8894;-81
2022/05/17 12:26:35;;;;;;;;;0.00;0.00;;;;;;;;5045587;28;8925;-80
2022/05/17 12:31:48;;;;;;;;;0.00;0.00;;;;;;;;5041270;28;8815;-80
2022/05/17 12:34:16;;;;;;;;;0.00;0.00;;;;;;;;5037735;28;8863;-79
2022/05/17 12:36:43;;;;;;;;;0.00;0.00;;;;;;;;5048164;28;8917;-80
2022/05/17 12:44:50;;;;;;;;;0.20;0.20;;;;;;;;5033362;28;8866;-79
2022/05/17 12:47:21;;;;;;;;;0.80;0.80;;;;;;;;5044451;28;8858;-79
2022/05/17 12:49:53;;;;;;;;;0.60;0.60;;;;;;;;5041820;28;8868;-81
2022/05/17 12:52:27;;;;;;;;;1.00;1.00;;;;;;;;5036865;28;8956;-79
2022/05/17 12:55:04;;;;;;;;;1.40;1.00;;;;;;;;5039026;28;9451;-80
2022/05/17 12:57:34;;;;;;;;;0.80;0.80;;;;;;;;5043174;28;8871;-79
2022/05/17 13:00:13;;;;;;;;;0.40;0.40;;;;;;;;5037839;28;9668;-79
2022/05/17 13:02:44;;;;;;;;;0.00;0.00;;;;;;;;5040213;28;8810;-80
2022/05/17 13:05:25;;;;;;;;;1.00;1.00;;;;;;;;5043193;28;8887;-81
2022/05/17 13:08:01;;;;;;;;;1.00;1.00;;;;;;;;5035649;28;8866;-81
2022/05/17 13:10:28;;;;;;;;;0.80;0.80;;;;;;;;5039523;28;8998;-79
2022/05/17 13:12:56;;;;;;;;;3.20;2.00;;;;;;;;5042685;28;8880;-80
2022/05/17 13:15:25;;;;;;;;;1.40;1.00;;;;;;;;5039653;28;8927;-80
2022/05/17 13:17:56;;;;;;;;;1.00;1.00;;;;;;;;5039066;28;9571;-80
2022/05/17 13:20:27;;;;;;;;;1.00;1.00;;;;;;;;5044390;28;8970;-80
2022/05/17 13:22:55;;;;;;;;;2.80;2.80;;;;;;;;5044424;28;8893;-82
2022/05/17 13:25:36;;;;;;;;;0.40;0.40;;;;;;;;5044819;28;8902;-81
2022/05/17 13:28:03;;;;;;;;;1.80;0.00;;;;;;;;5040024;28;8925;-79
2022/05/17 13:30:35;;;;;;;;;1.40;1.40;;;;;;;;5044340;28;8800;-80
2022/05/17 13:33:02;;;;;;;;;0.20;0.20;;;;;;;;5041483;28;9002;-78
2022/05/17 13:35:35;;;;;;;;;2.00;2.00;;;;;;;;5040207;28;8859;-85
2022/05/17 13:38:06;;;;;;;;;1.00;1.00;;;;;;;;5042398;28;8886;-85
2022/05/17 13:40:39;;;;;;;;;2.00;0.00;;;;;;;;5045437;28;8882;-84
2022/05/17 13:43:21;;;;;;;;;1.00;1.00;;;;;;;;5042060;28;8883;-83
2022/05/17 13:46:05;;;;;;;;;0.60;0.60;;;;;;;;5042438;28;8863;-84
2022/05/17 13:48:33;;;;;;;;;1.00;1.00;;;;;;;;5043547;28;8869;-84
2022/05/17 13:51:02;;;;;;;;;1.00;1.00;;;;;;;;5043609;28;8887;-82
2022/05/17 13:53:33;;;;;;;;;1.00;1.00;;;;;;;;5044244;28;9556;-83
2022/05/17 13:56:00;;;;;;;;;1.40;1.40;;;;;;;;5043178;28;8883;-82
2022/05/17 13:58:30;;;;;;;;;0.40;0.40;;;;;;;;5041282;28;8882;-79
2022/05/17 14:01:12;;;;;;;;;2.40;1.80;;;;;;;;5043491;28;8838;-85
2022/05/17 14:03:42;;;;;;;;;1.00;1.00;;;;;;;;5041598;28;8997;-83
2022/05/17 14:06:18;;;;;;;;;1.20;1.20;;;;;;;;5040755;28;8871;-80
2022/05/17 14:11:54;;;;;;;;;0.00;0.00;;;;;;;;5041609;28;8826;-80
2022/05/17 14:14:23;;;;;;;;;1.00;1.00;;;;;;;;5038267;28;8856;-79
2022/05/17 14:16:56;;;;;;;;;0.00;0.00;;;;;;;;5042973;28;8906;-83
2022/05/17 14:19:26;;;;;;;;;5.40;1.00;;;;;;;;5034607;28;8937;-86
2022/05/17 14:22:02;;;;;;;;;1.20;1.20;;;;;;;;5039257;28;8895;-85
2022/05/17 14:24:30;;;;;;;;;1.20;1.20;;;;;;;;5042722;28;8898;-84
2022/05/17 14:27:00;;;;;;;;;1.40;1.40;;;;;;;;5043838;28;8878;-85
2022/05/17 14:29:40;;;;;;;;;0.40;0.40;;;;;;;;5044665;28;8879;-86
2022/05/17 14:32:11;;;;;;;;;1.60;1.60;;;;;;;;5027465;28;8827;-85
2022/05/17 14:34:40;;;;;;;;;0.80;0.80;;;;;;;;5044125;28;8889;-84
2022/05/17 14:37:07;;;;;;;;;2.00;2.00;;;;;;;;5046023;28;8867;-84
2022/05/17 14:39:38;;;;;;;;;3.00;1.60;;;;;;;;5043822;28;9014;-85
2022/05/17 14:42:09;;;;;;;;;2.00;2.00;;;;;;;;5041657;28;8875;-84
2022/05/17 14:44:37;;;;;;;;;1.80;1.80;;;;;;;;5039475;28;8945;-84
2022/05/17 14:47:09;;;;;;;;;2.80;2.00;;;;;;;;5044815;28;8960;-85
2022/05/17 14:49:48;;;;;;;;;3.20;1.20;;;;;;;;5041456;28;9013;-86
2022/05/17 14:52:15;;;;;;;;;2.60;2.00;;;;;;;;5043018;28;8883;-85
2022/05/17 14:54:45;;;;;;;;;2.80;2.40;;;;;;;;5045332;28;9001;-87
2022/05/17 14:57:13;;;;;;;;;2.80;1.80;;;;;;;;5043170;28;8976;-85
2022/05/17 14:59:40;;;;;;;;;2.00;2.00;;;;;;;;5039045;28;9613;-84
2022/05/17 15:02:12;;;;;;;;;1.40;1.40;;;;;;;;5035723;28;9585;-83
2022/05/17 15:04:40;;;;;;;;;2.60;2.60;;;;;;;;5043382;28;9025;-84
2022/05/17 15:07:12;;;;;;;;;2.00;2.00;;;;;;;;5035276;28;8885;-84
2022/05/17 15:09:40;;;;;;;;;1.60;1.60;;;;;;;;5031741;28;9319;-85
2022/05/17 15:12:07;;;;;;;;;1.20;0.00;;;;;;;;5033811;28;8853;-82
2022/05/17 15:14:35;;;;;;;;;2.00;2.00;;;;;;;;5030623;28;8866;-85
2022/05/17 15:17:03;;;;;;;;;1.00;1.00;;;;;;;;5033671;28;8908;-85
2022/05/17 15:19:34;;;;;;;;;2.00;2.00;;;;;;;;5032172;28;8989;-84
2022/05/17 15:22:04;;;;;;;;;1.00;1.00;;;;;;;;5032880;28;8872;-84
2022/05/17 15:24:32;;;;;;;;;5.00;2.00;;;;;;;;5027139;28;9033;-84
2022/05/17 15:26:59;;;;;;;;;3.20;3.20;;;;;;;;5035539;28;8863;-83
2022/05/17 15:29:26;;;;;;;;;0.80;0.60;;;;;;;;5031728;28;8893;-83
2022/05/17 15:31:54;;;;;;;;;2.80;1.80;;;;;;;;5032213;28;8839;-84
2022/05/17 15:34:22;;;;;;;;;2.80;2.80;;;;;;;;5031039;28;8933;-84
2022/05/17 15:36:53;;;;;;;;;2.80;2.20;;;;;;;;5036705;28;8863;-86
2022/05/17 15:39:21;;;;;;;;;3.00;3.00;;;;;;;;5030915;28;8859;-85
2022/05/17 15:41:48;;;;;;;;;2.80;2.80;;;;;;;;5029279;28;8901;-83